CheckWX is a tool to help pilots better visualize weather data.  It is not intended as a substitute for an official pre-flight weather briefing.

12:59:20 UTC

KOZR METAR
Cairns AAF (Fort Rucker) Airport
Fort Rucker/Ozark, Alabama, USA
Current

31 mins ago

KOZR 131228Z AUTO 06010KT 2 1/2SM -RA BR OVC002 07/07 A3005 RMK AO2 VIS 2V2 1/2 DZB1158E08RAB08 TSB13E28 SLP179
Observed
Dec-13 @ 12:28 UTC
Wind
  • 060° at 10 KTS
Visibility
2 1/2 SM
Flight Rules
LIFR
Conditions
Light Rain, Mist
Cloud Levels
  • Overcast at 200' AGL
Temperature
C / 45°F
Dewpoint
C / 45°F
Humidity
100%
Altimeter
30.05" Hg
Pressure
1017.62 hPa
Previous

46 mins ago

KOZR 131213Z AUTO 02005KT 1 7/8SM -TSRA BR OVC002 07/07 A3006 RMK AO2 DZB1158E08RAB08 TSB13 SLP183
Observed
Dec-13 @ 12:13 UTC
Wind
  • 020° at 5 KTS
Visibility
1.88 SM
Flight Rules
LIFR
Conditions
Light Thunderstorm, Light Rain, Mist
Cloud Levels
  • Overcast at 200' AGL
Temperature
C / 45°F
Dewpoint
C / 45°F
Humidity
100%
Altimeter
30.06" Hg
Pressure
1017.92 hPa
Previous

1 hour ago

KOZR 131158Z AUTO 02007KT 2SM -DZ BR OVC002 07/07 A3006 RMK AO2 DZB58 SLP183
Observed
Dec-13 @ 11:58 UTC
Wind
  • 020° at 7 KTS
Visibility
2 SM
Flight Rules
LIFR
Conditions
Light Drizzle, Mist
Cloud Levels
  • Overcast at 200' AGL
Temperature
C / 45°F
Dewpoint
C / 45°F
Humidity
100%
Altimeter
30.06" Hg
Pressure
1017.92 hPa